createdAt,value
2023-10-21T00:00:51.755Z,97839.19
2023-10-21T00:05:53.414Z,97842.13
2023-10-21T00:11:09.532Z,97857.06
2023-10-21T00:16:12.429Z,97830.59
2023-10-21T00:21:14.160Z,97825.41
2023-10-21T00:26:18.919Z,97825.69
2023-10-21T00:31:20.567Z,97824.66
2023-10-21T00:36:22.337Z,97830.44
2023-10-21T00:41:23.985Z,97844.66
2023-10-21T00:46:27.763Z,97858.81
2023-10-21T00:51:29.524Z,97863.59
2023-10-21T00:56:31.154Z,97859.13
2023-10-21T01:01:35.951Z,97875.19
2023-10-21T01:06:37.637Z,97897.84
2023-10-21T01:11:39.229Z,97903.00
2023-10-21T01:16:40.841Z,97920.00
2023-10-21T01:21:42.459Z,97928.13
2023-10-21T01:26:44.086Z,97942.13
2023-10-21T01:31:45.689Z,97938.13
2023-10-21T01:36:48.222Z,97944.28
2023-10-21T01:41:49.860Z,97958.16
2023-10-21T01:46:51.463Z,97954.44
2023-10-21T01:51:53.216Z,97949.28
2023-10-21T01:56:55.032Z,97957.41
2023-10-21T02:01:56.686Z,97958.41
2023-10-21T02:06:58.305Z,97965.44
2023-10-21T02:11:59.900Z,97966.72
2023-10-21T02:17:01.544Z,97988.28
2023-10-21T02:22:03.345Z,98006.16
2023-10-21T02:27:06.184Z,97986.03
2023-10-21T02:32:07.861Z,97992.59
2023-10-21T02:37:10.090Z,98009.56
2023-10-21T02:42:11.722Z,98020.97
2023-10-21T02:47:13.811Z,98010.91
2023-10-21T02:52:15.416Z,98008.09
2023-10-21T02:57:17.170Z,98004.03
2023-10-21T03:02:18.892Z,97980.75
2023-10-21T03:07:20.568Z,97997.34
2023-10-21T03:12:23.987Z,98007.59
2023-10-21T03:17:25.718Z,98007.88
2023-10-21T03:22:27.283Z,97996.72
2023-10-21T03:27:28.869Z,98002.41
2023-10-21T03:32:30.574Z,98007.47
2023-10-21T03:37:32.218Z,98026.81
2023-10-21T03:42:33.807Z,98014.50
2023-10-21T03:47:35.624Z,98023.38
2023-10-21T03:52:37.277Z,98034.56
2023-10-21T03:57:38.916Z,98028.97
2023-10-21T04:02:40.597Z,98022.53
2023-10-21T04:07:42.198Z,98023.69
2023-10-21T04:12:44.755Z,98022.34
2023-10-21T04:17:49.696Z,98026.09
2023-10-21T04:22:51.619Z,98032.09
2023-10-21T04:27:53.436Z,98064.72
2023-10-21T04:32:55.380Z,98093.09
2023-10-21T04:37:57.734Z,98096.44
2023-10-21T04:42:59.349Z,98109.31
2023-10-21T04:48:01.085Z,98116.44
2023-10-21T04:53:02.940Z,98140.13
2023-10-21T04:58:05.551Z,98147.88
2023-10-21T05:03:07.238Z,98156.97
2023-10-21T05:08:08.907Z,98156.00
2023-10-21T05:13:10.476Z,98167.75
2023-10-21T05:18:12.252Z,98174.25
2023-10-21T05:23:14.109Z,98163.41
2023-10-21T05:28:15.793Z,98158.94
2023-10-21T05:33:18.051Z,98190.53
2023-10-21T05:38:19.746Z,98222.44
2023-10-21T05:43:21.538Z,98215.16
2023-10-21T05:48:23.834Z,98232.41
2023-10-21T05:53:25.726Z,98249.13
2023-10-21T05:58:33.059Z,98257.78
2023-10-21T06:03:40.740Z,98252.19
2023-10-21T06:08:42.555Z,98260.13
2023-10-21T06:13:44.151Z,98270.13
2023-10-21T06:18:46.471Z,98276.88
2023-10-21T06:23:48.170Z,98278.22
2023-10-21T06:28:49.774Z,98284.69
2023-10-21T06:33:51.642Z,98308.34
2023-10-21T06:38:53.367Z,98322.81
2023-10-21T06:43:55.066Z,98327.66
2023-10-21T06:48:56.788Z,98338.69
2023-10-21T06:53:58.443Z,98338.50
2023-10-21T06:59:01.020Z,98352.16
2023-10-21T07:04:02.728Z,98368.50
2023-10-21T07:09:04.613Z,98377.44
2023-10-21T07:14:06.302Z,98391.66
2023-10-21T07:19:07.964Z,98402.25
2023-10-21T07:24:12.711Z,98417.28
2023-10-21T07:29:14.340Z,98420.34
2023-10-21T07:34:15.945Z,98419.06
2023-10-21T07:39:19.676Z,98423.22
2023-10-21T07:44:23.011Z,98438.75
2023-10-21T07:49:25.958Z,98425.69
2023-10-21T07:54:27.906Z,98453.69
2023-10-21T07:59:29.598Z,98456.56
2023-10-21T08:04:33.293Z,98470.69
2023-10-21T08:09:37.170Z,98465.88
2023-10-21T08:14:41.820Z,98471.31
2023-10-21T08:19:43.511Z,98480.69
2023-10-21T08:24:45.199Z,98489.44
2023-10-21T08:29:48.096Z,98502.72
2023-10-21T08:34:49.708Z,98509.25
2023-10-21T08:39:51.446Z,98520.78
2023-10-21T08:44:55.709Z,98538.81
2023-10-21T08:49:57.945Z,98545.91
2023-10-21T08:54:59.723Z,98546.59
2023-10-21T09:00:01.499Z,98548.91
2023-10-21T09:05:13.112Z,98556.13
2023-10-21T09:10:15.471Z,98563.06
2023-10-21T09:15:17.230Z,98557.31
2023-10-21T09:20:20.217Z,98562.06
2023-10-21T09:25:23.568Z,98560.06
2023-10-21T09:30:30.015Z,98565.16
2023-10-21T09:35:32.451Z,98580.78
2023-10-21T09:40:34.049Z,98583.69
2023-10-21T09:45:36.752Z,98580.13
2023-10-21T09:50:43.930Z,98583.75
2023-10-21T09:55:46.182Z,98586.75
2023-10-21T10:00:49.111Z,98595.44
2023-10-21T10:05:51.163Z,98594.19
2023-10-21T10:10:56.895Z,98601.09
2023-10-21T10:15:58.786Z,98607.22
2023-10-21T10:21:02.033Z,98617.50
2023-10-21T10:26:03.804Z,98619.19
2023-10-21T10:31:05.560Z,98616.25
2023-10-21T10:36:14.219Z,98624.25
2023-10-21T10:41:20.152Z,98630.56
2023-10-21T10:46:24.122Z,98633.94
2023-10-21T10:51:28.965Z,98635.59
2023-10-21T10:56:41.210Z,98653.06
2023-10-21T11:01:43.167Z,98663.38
2023-10-21T11:06:46.491Z,98663.78
2023-10-21T11:12:03.520Z,98668.47
2023-10-21T11:17:11.928Z,98683.59
2023-10-21T11:22:26.880Z,98679.41
2023-10-21T11:27:28.982Z,98680.06
2023-10-21T11:32:32.671Z,98679.81
2023-10-21T11:37:34.505Z,98688.66
2023-10-21T11:42:36.573Z,98689.06
2023-10-21T11:47:38.638Z,98697.91
2023-10-21T11:52:45.528Z,98690.31
2023-10-21T11:57:47.217Z,98692.66
2023-10-21T12:02:48.871Z,98691.78
2023-10-21T12:08:09.415Z,98694.47
2023-10-21T12:13:11.067Z,98720.56
2023-10-21T12:18:35.642Z,98734.88
2023-10-21T12:24:05.500Z,98734.47
2023-10-21T12:29:13.293Z,98739.91
2023-10-21T12:34:33.234Z,98737.78
2023-10-21T12:39:39.019Z,98746.84
2023-10-21T12:44:48.755Z,98749.56
2023-10-21T12:49:51.594Z,98775.28
2023-10-21T12:54:53.351Z,98782.63
2023-10-21T12:59:54.950Z,98774.00
2023-10-21T13:04:56.644Z,98790.84
2023-10-21T13:09:59.417Z,98781.16
2023-10-21T13:15:03.674Z,98788.75
2023-10-21T13:20:06.579Z,98782.00
2023-10-21T13:25:18.843Z,98790.03
2023-10-21T13:30:22.483Z,98798.25
2023-10-21T13:35:26.770Z,98812.13
2023-10-21T13:40:29.477Z,98802.88
2023-10-21T13:45:33.812Z,98798.41
2023-10-21T13:50:37.893Z,98794.63
2023-10-21T13:55:46.373Z,98817.41
2023-10-21T14:00:48.332Z,98824.19
2023-10-21T14:05:51.722Z,98822.94
2023-10-21T14:10:55.354Z,98821.25
2023-10-21T14:16:02.532Z,98824.63
2023-10-21T14:21:05.268Z,98838.47
2023-10-21T14:26:07.776Z,98835.53
2023-10-21T14:31:09.626Z,98839.31
2023-10-21T14:36:14.160Z,98846.44
2023-10-21T14:41:15.863Z,98837.78
2023-10-21T14:46:17.515Z,98851.88
2023-10-21T14:51:19.141Z,98842.56
2023-10-21T14:56:22.134Z,98847.59
2023-10-21T15:01:26.161Z,98858.09
2023-10-21T15:06:30.944Z,98850.88
2023-10-21T15:11:32.581Z,98868.69
2023-10-21T15:16:34.249Z,98865.94
2023-10-21T15:21:36.008Z,98857.06
2023-10-21T15:26:37.717Z,98863.69
2023-10-21T15:31:42.807Z,98877.84
2023-10-21T15:36:44.535Z,98884.91
2023-10-21T15:41:47.962Z,98884.41
2023-10-21T15:46:49.588Z,98883.63
2023-10-21T15:51:51.355Z,98881.53
2023-10-21T15:56:52.966Z,98893.59
2023-10-21T16:01:54.625Z,98900.94
2023-10-21T16:06:56.245Z,98907.00
2023-10-21T16:11:59.325Z,98912.47
2023-10-21T16:17:02.618Z,98910.75
2023-10-21T16:22:04.510Z,98927.31
2023-10-21T16:27:06.496Z,98945.00
2023-10-21T16:32:08.106Z,98958.28
2023-10-21T16:37:09.700Z,98977.03
2023-10-21T16:42:11.363Z,98978.91
2023-10-21T16:47:15.437Z,98980.06
2023-10-21T16:52:17.330Z,98983.63
2023-10-21T16:57:18.968Z,98993.56
2023-10-21T17:02:20.664Z,99003.31
2023-10-21T17:07:22.372Z,99002.41
2023-10-21T17:12:24.202Z,99001.09
2023-10-21T17:17:26.325Z,99001.47
2023-10-21T17:22:28.447Z,99009.34
2023-10-21T17:27:30.072Z,99013.97
2023-10-21T17:32:32.300Z,99014.47
2023-10-21T17:37:34.010Z,99032.69
2023-10-21T17:42:35.638Z,99033.91
2023-10-21T17:47:37.989Z,99028.47
2023-10-21T17:52:39.642Z,99028.84
2023-10-21T17:57:41.610Z,99029.78
2023-10-21T18:02:44.464Z,99034.38
2023-10-21T18:07:46.172Z,99038.78
2023-10-21T18:12:48.026Z,99048.00
2023-10-21T18:17:49.692Z,99052.47
2023-10-21T18:22:51.441Z,99061.31
2023-10-21T18:27:56.192Z,99069.41
2023-10-21T18:32:57.973Z,99075.13
2023-10-21T18:38:00.547Z,99078.72
2023-10-21T18:43:02.263Z,99082.00
2023-10-21T18:48:04.293Z,99089.03
2023-10-21T18:53:06.087Z,99089.50
2023-10-21T18:58:07.680Z,99074.03
2023-10-21T19:03:09.485Z,99078.59
2023-10-21T19:08:11.093Z,99083.94
2023-10-21T19:13:15.197Z,99093.88
2023-10-21T19:18:16.797Z,99092.06
2023-10-21T19:23:18.416Z,99085.66
2023-10-21T19:28:21.739Z,99088.06
2023-10-21T19:33:24.358Z,99095.47
2023-10-21T19:38:26.537Z,99092.59
2023-10-21T19:43:28.133Z,99088.22
2023-10-21T19:48:30.453Z,99082.44
2023-10-21T19:53:34.972Z,99078.59
2023-10-21T19:58:39.574Z,99079.25
2023-10-21T20:03:41.497Z,99093.06
2023-10-21T20:08:43.312Z,99096.00
2023-10-21T20:13:44.991Z,99087.84
2023-10-21T20:18:46.875Z,99077.50
2023-10-21T20:23:49.100Z,99078.53
2023-10-21T20:28:50.757Z,99076.44
2023-10-21T20:33:52.408Z,99075.47
2023-10-21T20:38:54.182Z,99072.81
2023-10-21T20:43:55.800Z,99068.13
2023-10-21T20:48:57.471Z,99062.31
2023-10-21T20:53:59.096Z,99060.31
2023-10-21T20:59:02.197Z,99061.72
2023-10-21T21:04:05.229Z,99055.31
2023-10-21T21:09:09.051Z,99060.94
2023-10-21T21:14:11.305Z,99053.69
2023-10-21T21:19:13.218Z,99050.16
2023-10-21T21:24:14.733Z,99064.25
2023-10-21T21:29:16.178Z,99065.63
2023-10-21T21:34:17.652Z,99053.75
2023-10-21T21:39:22.992Z,99050.00
2023-10-21T21:44:24.466Z,99035.94
2023-10-21T21:49:25.915Z,99033.41
2023-10-21T21:54:29.490Z,99023.41
2023-10-21T21:59:31.219Z,99019.34
2023-10-21T22:04:32.848Z,99020.88
2023-10-21T22:09:35.195Z,99012.75
2023-10-21T22:14:37.425Z,99017.50
2023-10-21T22:19:39.255Z,99017.00
2023-10-21T22:24:42.672Z,99022.97
2023-10-21T22:29:45.774Z,99027.53
2023-10-21T22:34:47.304Z,99030.22
2023-10-21T22:39:48.765Z,99024.66
2023-10-21T22:44:50.231Z,99027.84
2023-10-21T22:49:51.799Z,99021.94
2023-10-21T22:54:53.312Z,99008.03
2023-10-21T22:59:57.739Z,99005.66
2023-10-21T23:04:59.348Z,99004.44
2023-10-21T23:10:01.272Z,99021.94
2023-10-21T23:15:04.670Z,99012.75
2023-10-21T23:20:06.835Z,99017.81
2023-10-21T23:25:11.319Z,99029.31
2023-10-21T23:30:15.165Z,99023.53
2023-10-21T23:35:16.754Z,99017.41
2023-10-21T23:40:18.331Z,99020.09
2023-10-21T23:45:22.571Z,99018.03
2023-10-21T23:50:24.326Z,99023.09
2023-10-21T23:55:25.831Z,99037.38
